createdAt,value
2022-10-29T00:00:54.061Z,17.05
2022-10-29T00:03:21.756Z,17.08
2022-10-29T00:05:49.478Z,17.06
2022-10-29T00:08:17.254Z,17.05
2022-10-29T00:10:44.972Z,17.03
2022-10-29T00:13:12.847Z,17.01
2022-10-29T00:15:40.481Z,16.99
2022-10-29T00:18:08.214Z,16.95
2022-10-29T00:20:36.060Z,16.90
2022-10-29T00:23:04.171Z,16.86
2022-10-29T00:25:32.121Z,16.80
2022-10-29T00:27:59.696Z,16.76
2022-10-29T00:30:27.281Z,16.73
2022-10-29T00:32:55.435Z,16.72
2022-10-29T00:35:23.346Z,16.71
2022-10-29T00:37:51.285Z,16.69
2022-10-29T00:40:19.002Z,16.71
2022-10-29T00:42:46.564Z,16.72
2022-10-29T00:45:15.891Z,16.75
2022-10-29T00:47:43.563Z,16.78
2022-10-29T00:50:11.513Z,16.80
2022-10-29T00:52:39.100Z,16.82
2022-10-29T00:55:06.795Z,16.84
2022-10-29T00:57:34.554Z,16.87
2022-10-29T01:00:02.177Z,16.91
2022-10-29T01:02:30.295Z,16.95
2022-10-29T01:04:58.240Z,16.98
2022-10-29T01:07:26.192Z,17.00
2022-10-29T01:09:53.802Z,17.01
2022-10-29T01:12:21.390Z,17.00
2022-10-29T01:14:49.359Z,17.02
2022-10-29T01:17:17.918Z,17.02
2022-10-29T01:19:45.698Z,17.02
2022-10-29T01:22:13.300Z,17.02
2022-10-29T01:24:40.875Z,17.00
2022-10-29T01:27:08.851Z,16.98
2022-10-29T01:29:36.443Z,16.96
2022-10-29T01:32:04.093Z,16.95
2022-10-29T01:34:31.838Z,16.91
2022-10-29T01:36:59.428Z,16.92
2022-10-29T01:39:27.421Z,16.92
2022-10-29T01:41:55.006Z,16.90
2022-10-29T01:44:22.582Z,16.89
2022-10-29T01:46:50.228Z,16.88
2022-10-29T01:49:17.822Z,16.86
2022-10-29T01:51:46.142Z,16.84
2022-10-29T01:54:13.771Z,16.81
2022-10-29T01:56:41.596Z,16.78
2022-10-29T01:59:18.057Z,16.73
2022-10-29T02:01:56.599Z,16.67
2022-10-29T02:04:24.246Z,16.63
2022-10-29T02:06:51.873Z,16.57
2022-10-29T02:09:19.637Z,16.52
2022-10-29T02:11:47.506Z,16.45
2022-10-29T02:14:15.468Z,16.39
2022-10-29T02:16:43.057Z,16.34
2022-10-29T02:19:10.644Z,16.28
2022-10-29T02:21:40.488Z,16.26
2022-10-29T02:24:08.075Z,16.23
2022-10-29T02:26:36.023Z,16.20
2022-10-29T02:29:03.622Z,16.17
2022-10-29T02:31:31.220Z,16.15
2022-10-29T02:34:00.201Z,16.15
2022-10-29T02:36:27.769Z,16.18
2022-10-29T02:38:55.712Z,16.23
2022-10-29T02:41:23.293Z,16.29
2022-10-29T02:43:50.873Z,16.31
2022-10-29T02:46:18.498Z,16.28
2022-10-29T02:48:46.080Z,16.26
2022-10-29T02:51:14.063Z,16.23
2022-10-29T02:53:41.677Z,16.17
2022-10-29T02:56:09.736Z,16.15
2022-10-29T02:58:37.487Z,16.12
2022-10-29T03:01:05.134Z,16.07
2022-10-29T03:03:33.141Z,16.01
2022-10-29T03:06:00.681Z,15.93
2022-10-29T03:08:28.261Z,15.86
2022-10-29T03:10:56.049Z,15.80
2022-10-29T03:13:23.679Z,15.73
2022-10-29T03:15:51.338Z,15.67
2022-10-29T03:18:19.295Z,15.58
2022-10-29T03:20:47.637Z,15.53
2022-10-29T03:23:15.543Z,15.51
2022-10-29T03:25:43.119Z,15.47
2022-10-29T03:28:11.130Z,15.44
2022-10-29T03:30:38.722Z,15.40
2022-10-29T03:33:06.318Z,15.35
2022-10-29T03:35:33.977Z,15.32
2022-10-29T03:38:01.651Z,15.27
2022-10-29T03:40:29.926Z,15.23
2022-10-29T03:42:57.872Z,15.22
2022-10-29T03:45:25.782Z,15.19
2022-10-29T03:47:53.824Z,15.16
2022-10-29T03:50:21.547Z,15.15
2022-10-29T03:52:49.469Z,15.14
2022-10-29T03:55:17.045Z,15.13
2022-10-29T03:57:44.658Z,15.09
2022-10-29T04:00:12.780Z,15.07
2022-10-29T04:02:40.990Z,15.01
2022-10-29T04:05:09.156Z,15.00
2022-10-29T04:07:36.802Z,14.99
2022-10-29T04:10:04.380Z,14.99
2022-10-29T04:12:32.134Z,15.00
2022-10-29T04:14:59.781Z,15.02
2022-10-29T04:17:27.772Z,15.04
2022-10-29T04:19:55.361Z,15.08
2022-10-29T04:30:46.237Z,15.18
2022-10-29T04:33:13.876Z,15.18
2022-10-29T04:35:41.685Z,15.18
2022-10-29T04:38:09.638Z,15.17
2022-10-29T04:40:37.244Z,15.16
2022-10-29T04:43:05.131Z,15.13
2022-10-29T04:45:32.783Z,15.11
2022-10-29T04:48:00.434Z,15.09
2022-10-29T04:50:28.100Z,15.04
2022-10-29T04:52:55.651Z,14.99
2022-10-29T04:55:23.246Z,14.96
2022-10-29T04:57:50.828Z,14.93
2022-10-29T05:00:18.913Z,14.93
2022-10-29T05:02:46.952Z,14.94
2022-10-29T05:05:14.917Z,14.94
2022-10-29T05:07:42.524Z,14.96
2022-10-29T05:10:10.145Z,15.00
2022-10-29T05:12:37.894Z,15.04
2022-10-29T05:15:05.837Z,15.09
2022-10-29T05:17:33.486Z,15.14
2022-10-29T05:20:01.080Z,15.18
2022-10-29T05:22:28.713Z,15.21
2022-10-29T05:24:56.400Z,15.21
2022-10-29T05:27:24.331Z,15.20
2022-10-29T05:29:51.906Z,15.19
2022-10-29T05:32:19.540Z,15.19
2022-10-29T05:34:47.260Z,15.19
2022-10-29T05:37:15.048Z,15.19
2022-10-29T05:39:43.012Z,15.20
2022-10-29T05:42:10.570Z,15.23
2022-10-29T05:44:38.168Z,15.27
2022-10-29T05:47:06.256Z,15.29
2022-10-29T05:49:34.147Z,15.29
2022-10-29T05:52:02.129Z,15.25
2022-10-29T05:54:31.244Z,15.20
2022-10-29T05:56:58.906Z,15.15
2022-10-29T05:59:31.079Z,15.11
2022-10-29T06:02:01.646Z,15.08
2022-10-29T06:04:29.340Z,15.08
2022-10-29T06:06:57.027Z,15.06
2022-10-29T06:09:25.049Z,15.05
2022-10-29T06:11:52.679Z,15.05
2022-10-29T06:14:20.404Z,15.05
2022-10-29T06:16:48.339Z,15.06
2022-10-29T06:19:15.926Z,15.08
2022-10-29T06:21:43.550Z,15.10
2022-10-29T06:24:12.375Z,15.12
2022-10-29T06:26:40.235Z,15.15
2022-10-29T06:29:08.208Z,15.17
2022-10-29T06:31:36.505Z,15.19
2022-10-29T06:34:04.137Z,15.21
2022-10-29T06:36:31.775Z,15.21
2022-10-29T06:38:59.431Z,15.21
2022-10-29T06:41:27.468Z,15.22
2022-10-29T06:43:55.090Z,15.24
2022-10-29T06:46:22.808Z,15.23
2022-10-29T06:48:50.478Z,15.25
2022-10-29T06:51:18.480Z,15.27
2022-10-29T06:53:46.584Z,15.27
2022-10-29T06:56:14.312Z,15.26
2022-10-29T06:58:41.987Z,15.26
2022-10-29T07:01:09.706Z,15.27
2022-10-29T07:03:37.437Z,15.29
2022-10-29T07:06:05.228Z,15.34
2022-10-29T07:08:33.488Z,15.43
2022-10-29T07:11:03.054Z,15.51
2022-10-29T07:13:30.784Z,15.60
2022-10-29T07:16:00.311Z,15.67
2022-10-29T07:18:28.111Z,15.73
2022-10-29T07:20:55.800Z,15.79
2022-10-29T07:23:23.558Z,15.84
2022-10-29T07:25:51.371Z,15.91
2022-10-29T07:28:20.949Z,15.98
2022-10-29T07:30:49.397Z,16.02
2022-10-29T07:33:17.054Z,16.05
2022-10-29T07:35:44.922Z,16.09
2022-10-29T07:38:13.282Z,16.12
2022-10-29T07:40:41.215Z,16.18
2022-10-29T07:43:09.348Z,16.28
2022-10-29T07:45:37.090Z,16.37
2022-10-29T07:48:04.770Z,16.44
2022-10-29T07:50:32.515Z,16.54
2022-10-29T07:53:00.376Z,16.62
2022-10-29T07:58:02.571Z,16.79
2022-10-29T08:00:30.342Z,16.89
2022-10-29T08:02:58.013Z,16.98
2022-10-29T08:05:26.231Z,17.09
2022-10-29T08:07:54.703Z,17.19
2022-10-29T08:10:22.752Z,17.26
2022-10-29T08:12:50.814Z,17.34
2022-10-29T08:15:18.569Z,17.41
2022-10-29T08:17:46.605Z,17.53
2022-10-29T08:20:14.377Z,17.68
2022-10-29T08:22:42.525Z,17.84
2022-10-29T08:25:10.324Z,18.01
2022-10-29T08:27:38.113Z,18.16
2022-10-29T08:30:06.071Z,18.29
2022-10-29T08:32:34.544Z,18.35
2022-10-29T08:35:02.291Z,18.41
2022-10-29T08:37:30.009Z,18.49
2022-10-29T08:39:57.847Z,18.57
2022-10-29T08:42:26.177Z,18.60
2022-10-29T08:44:54.844Z,18.64
2022-10-29T08:47:22.593Z,18.73
2022-10-29T08:49:50.467Z,18.80
2022-10-29T08:52:20.379Z,18.86
2022-10-29T08:54:48.175Z,18.88
2022-10-29T08:57:16.465Z,18.90
2022-10-29T08:59:44.185Z,18.99
2022-10-29T09:02:12.151Z,19.14
2022-10-29T09:04:40.246Z,19.27
2022-10-29T09:07:08.738Z,19.41
2022-10-29T09:09:36.906Z,19.54
2022-10-29T09:12:04.977Z,19.67
2022-10-29T09:14:32.719Z,19.84
2022-10-29T09:17:00.479Z,19.99
2022-10-29T09:19:28.488Z,20.08
2022-10-29T09:21:56.654Z,20.16
2022-10-29T09:24:24.569Z,20.23
2022-10-29T09:26:52.648Z,20.29
2022-10-29T09:29:20.463Z,20.37
2022-10-29T09:31:48.509Z,20.47
2022-10-29T09:34:18.399Z,20.61
2022-10-29T09:36:46.137Z,20.82
2022-10-29T09:39:14.016Z,21.06
2022-10-29T09:41:41.952Z,21.33
2022-10-29T09:44:09.717Z,21.57
2022-10-29T09:46:37.983Z,21.79
2022-10-29T09:51:34.833Z,22.37
2022-10-29T09:54:02.522Z,22.84
2022-10-29T09:56:30.755Z,23.31
2022-10-29T09:58:59.361Z,23.70
2022-10-29T10:01:27.187Z,24.03
2022-10-29T10:03:55.222Z,24.37
2022-10-29T10:06:23.064Z,24.72
2022-10-29T10:08:50.881Z,24.78
2022-10-29T10:11:19.100Z,24.79
2022-10-29T10:13:47.251Z,25.05
2022-10-29T10:16:15.093Z,25.31
2022-10-29T10:21:15.822Z,25.88
2022-10-29T10:23:43.779Z,25.77
2022-10-29T10:26:11.541Z,25.46
2022-10-29T10:28:39.374Z,25.05
2022-10-29T10:31:07.278Z,24.65
2022-10-29T10:33:35.396Z,24.35
2022-10-29T10:36:04.277Z,24.13
2022-10-29T10:38:32.242Z,24.03
2022-10-29T10:41:00.124Z,24.13
2022-10-29T10:43:28.018Z,24.27
2022-10-29T10:45:56.050Z,24.33
2022-10-29T10:48:24.817Z,24.37
2022-10-29T10:50:53.609Z,24.34
2022-10-29T10:53:21.450Z,24.31
2022-10-29T10:55:49.300Z,24.27
2022-10-29T10:58:17.140Z,24.24
2022-10-29T11:00:45.081Z,24.21
2022-10-29T11:03:13.007Z,24.13
2022-10-29T11:05:40.862Z,24.04
2022-10-29T11:08:08.804Z,24.00
2022-10-29T11:10:36.821Z,23.95
2022-10-29T11:13:04.970Z,23.92
2022-10-29T11:15:32.723Z,23.90
2022-10-29T11:18:01.363Z,23.96
2022-10-29T11:20:29.366Z,23.99
2022-10-29T11:22:57.765Z,24.02
2022-10-29T11:25:27.228Z,24.04
2022-10-29T11:27:55.090Z,24.05
2022-10-29T11:30:23.053Z,24.10
2022-10-29T11:32:50.688Z,24.16
2022-10-29T11:35:18.742Z,24.26
2022-10-29T11:37:47.204Z,24.40
2022-10-29T11:40:18.868Z,24.46
2022-10-29T11:42:46.681Z,24.50
2022-10-29T11:45:14.449Z,24.52
2022-10-29T11:47:42.524Z,24.55
2022-10-29T11:50:10.611Z,24.51
2022-10-29T11:52:38.533Z,24.49
2022-10-29T11:55:06.261Z,24.51
2022-10-29T11:57:34.088Z,24.52
2022-10-29T12:00:02.104Z,24.53
2022-10-29T12:02:30.721Z,24.55
2022-10-29T12:04:58.566Z,24.55
2022-10-29T12:07:27.017Z,24.56
2022-10-29T12:09:54.767Z,24.67
2022-10-29T12:12:22.792Z,24.76
2022-10-29T12:14:51.112Z,24.81
2022-10-29T12:17:19.160Z,24.86
2022-10-29T12:19:47.117Z,24.86
2022-10-29T12:22:15.074Z,24.86
2022-10-29T12:24:44.369Z,24.84
2022-10-29T12:27:14.065Z,24.83
2022-10-29T12:29:46.998Z,24.79
2022-10-29T12:32:14.853Z,24.72
2022-10-29T12:34:42.515Z,24.61
2022-10-29T12:37:10.649Z,24.52
2022-10-29T12:39:38.449Z,24.51
2022-10-29T12:42:06.321Z,24.57
2022-10-29T12:44:34.282Z,24.61
2022-10-29T12:47:02.558Z,24.62
2022-10-29T12:49:30.869Z,24.62
2022-10-29T12:51:59.024Z,24.56
2022-10-29T12:54:26.796Z,24.48
2022-10-29T12:56:54.538Z,24.40
2022-10-29T12:59:22.495Z,24.33
2022-10-29T13:02:10.462Z,24.26
2022-10-29T13:04:38.821Z,24.19
2022-10-29T13:07:06.967Z,24.17
2022-10-29T13:09:36.220Z,24.13
2022-10-29T13:12:04.516Z,24.12
2022-10-29T13:14:32.403Z,24.14
2022-10-29T13:17:00.591Z,24.20
2022-10-29T13:19:29.612Z,24.24
2022-10-29T13:21:57.484Z,24.27
2022-10-29T13:24:25.755Z,24.32
2022-10-29T13:26:53.583Z,24.37
2022-10-29T13:29:21.725Z,24.38
2022-10-29T13:31:49.611Z,24.45
2022-10-29T13:34:17.501Z,24.54
2022-10-29T13:36:45.260Z,24.75
2022-10-29T13:39:13.317Z,24.95
2022-10-29T13:41:43.741Z,24.95
2022-10-29T13:44:11.949Z,24.83
2022-10-29T13:46:44.862Z,24.68
2022-10-29T13:49:13.314Z,24.59
2022-10-29T13:51:41.753Z,24.53
2022-10-29T13:54:10.232Z,24.47
2022-10-29T13:56:38.139Z,24.42
2022-10-29T13:59:06.165Z,24.36
2022-10-29T14:01:34.347Z,24.26
2022-10-29T14:04:02.288Z,24.30
2022-10-29T14:06:30.537Z,24.33
2022-10-29T14:08:58.514Z,24.27
2022-10-29T14:11:26.493Z,24.29
2022-10-29T14:13:55.763Z,24.53
2022-10-29T14:16:23.659Z,24.84
2022-10-29T14:18:51.865Z,25.01
2022-10-29T14:21:19.654Z,25.05
2022-10-29T14:23:47.371Z,25.11
2022-10-29T14:26:15.650Z,25.12
2022-10-29T14:28:43.617Z,25.08
2022-10-29T14:31:11.966Z,24.98
2022-10-29T14:33:39.854Z,24.83
2022-10-29T14:36:08.078Z,24.63
2022-10-29T14:38:36.040Z,24.45
2022-10-29T14:41:03.984Z,24.27
2022-10-29T14:43:32.142Z,24.10
2022-10-29T14:46:00.025Z,23.94
2022-10-29T14:48:28.065Z,23.78
2022-10-29T14:50:58.053Z,23.65
2022-10-29T14:53:25.791Z,23.49
2022-10-29T14:55:54.219Z,23.34
2022-10-29T14:58:22.079Z,23.25
2022-10-29T15:00:50.092Z,23.15
2022-10-29T15:03:18.558Z,23.05
2022-10-29T15:05:46.445Z,22.92
2022-10-29T15:08:14.912Z,22.79
2022-10-29T15:10:42.920Z,22.65
2022-10-29T15:13:10.938Z,22.50
2022-10-29T15:15:39.123Z,22.34
2022-10-29T15:18:07.561Z,22.17
2022-10-29T15:20:35.975Z,21.99
2022-10-29T15:23:03.810Z,21.83
2022-10-29T15:25:31.828Z,21.71
2022-10-29T15:28:00.379Z,21.59
2022-10-29T15:30:28.946Z,21.49
2022-10-29T15:32:57.227Z,21.36
2022-10-29T15:35:25.378Z,21.27
2022-10-29T15:37:53.580Z,21.17
2022-10-29T15:40:23.335Z,21.09
2022-10-29T15:42:51.147Z,21.01
2022-10-29T15:45:19.427Z,20.97
2022-10-29T15:47:48.646Z,20.91
2022-10-29T15:50:16.529Z,20.85
2022-10-29T15:52:44.618Z,20.79
2022-10-29T15:55:12.600Z,20.71
2022-10-29T15:57:40.786Z,20.66
2022-10-29T16:00:08.609Z,20.56
2022-10-29T16:02:36.868Z,20.46
2022-10-29T16:05:05.258Z,20.36
2022-10-29T16:07:32.972Z,20.27
2022-10-29T16:10:01.128Z,20.18
2022-10-29T16:12:28.946Z,20.06
2022-10-29T16:14:56.806Z,19.98
2022-10-29T16:17:25.133Z,19.88
2022-10-29T16:19:53.124Z,19.83
2022-10-29T16:22:21.226Z,19.80
2022-10-29T16:24:49.573Z,19.79
2022-10-29T16:27:17.413Z,19.83
2022-10-29T16:29:47.218Z,19.89
2022-10-29T16:32:15.291Z,19.96
2022-10-29T16:34:43.410Z,20.05
2022-10-29T16:37:11.279Z,20.10
2022-10-29T16:39:39.071Z,20.17
2022-10-29T16:42:07.290Z,20.21
2022-10-29T16:44:35.107Z,20.25
2022-10-29T16:47:03.879Z,20.27
2022-10-29T16:49:31.763Z,20.27
2022-10-29T16:51:59.493Z,20.26
2022-10-29T16:54:27.600Z,20.22
2022-10-29T16:56:55.393Z,20.19
2022-10-29T16:59:23.620Z,20.16
2022-10-29T17:01:51.524Z,20.14
2022-10-29T17:04:19.553Z,20.12
2022-10-29T17:06:47.662Z,20.05
2022-10-29T17:09:16.000Z,20.01
2022-10-29T17:11:43.883Z,19.98
2022-10-29T17:14:11.674Z,19.94
2022-10-29T17:16:39.658Z,19.93
2022-10-29T17:19:07.772Z,19.93
2022-10-29T17:21:35.666Z,19.94
2022-10-29T17:24:07.681Z,19.94
2022-10-29T17:26:36.025Z,19.90
2022-10-29T17:29:03.957Z,19.87
2022-10-29T17:31:35.433Z,19.83
2022-10-29T17:34:03.248Z,19.81
2022-10-29T17:36:31.674Z,19.80
2022-10-29T17:38:59.587Z,19.76
2022-10-29T17:41:27.464Z,19.72
2022-10-29T17:43:55.652Z,19.61
2022-10-29T17:46:23.404Z,19.52
2022-10-29T17:48:51.609Z,19.41
2022-10-29T17:51:19.444Z,19.29
2022-10-29T17:53:47.742Z,19.18
2022-10-29T17:56:16.151Z,19.08
2022-10-29T17:58:43.995Z,19.01
2022-10-29T18:01:12.530Z,18.93
2022-10-29T18:03:40.487Z,18.88
2022-10-29T18:06:08.250Z,18.83
2022-10-29T18:08:36.595Z,18.78
2022-10-29T18:11:04.578Z,18.71
2022-10-29T18:13:32.818Z,18.64
2022-10-29T18:16:01.223Z,18.61
2022-10-29T18:18:34.683Z,18.65
2022-10-29T18:21:10.847Z,18.71
2022-10-29T18:23:39.062Z,18.73
2022-10-29T18:26:06.913Z,18.71
2022-10-29T18:28:36.222Z,18.66
2022-10-29T18:31:04.121Z,18.64
2022-10-29T18:33:32.369Z,18.60
2022-10-29T18:36:00.617Z,18.56
2022-10-29T18:38:30.930Z,18.54
2022-10-29T18:40:58.827Z,18.49
2022-10-29T18:43:26.881Z,18.49
2022-10-29T18:45:54.839Z,18.48
2022-10-29T18:48:23.275Z,18.47
2022-10-29T18:50:51.218Z,18.49
2022-10-29T18:53:19.046Z,18.52
2022-10-29T18:55:47.006Z,18.56
2022-10-29T18:58:15.008Z,18.61
2022-10-29T19:00:43.204Z,18.67
2022-10-29T19:03:11.158Z,18.71
2022-10-29T19:05:39.117Z,18.78
2022-10-29T19:08:06.987Z,18.82
2022-10-29T19:10:35.112Z,18.76
2022-10-29T19:13:03.482Z,18.73
2022-10-29T19:15:31.291Z,18.65
2022-10-29T19:17:59.662Z,18.55
2022-10-29T19:20:27.825Z,18.45
2022-10-29T19:22:56.294Z,18.37
2022-10-29T19:25:24.700Z,18.29
2022-10-29T19:27:52.729Z,18.20
2022-10-29T19:30:20.540Z,18.13
2022-10-29T19:32:48.457Z,18.05
2022-10-29T19:35:16.506Z,17.96
2022-10-29T19:37:44.958Z,17.85
2022-10-29T19:40:13.179Z,17.76
2022-10-29T19:42:41.096Z,17.71
2022-10-29T19:45:08.902Z,17.65
2022-10-29T19:47:37.213Z,17.62
2022-10-29T19:50:06.103Z,17.71
2022-10-29T19:52:33.964Z,17.92
2022-10-29T19:55:01.804Z,18.18
2022-10-29T19:57:29.809Z,18.44
2022-10-29T19:59:57.698Z,18.66
2022-10-29T20:02:26.323Z,18.87
2022-10-29T20:04:54.237Z,18.99
2022-10-29T20:07:22.146Z,19.06
2022-10-29T20:09:50.045Z,19.09
2022-10-29T20:12:18.264Z,19.13
2022-10-29T20:14:46.412Z,19.17
2022-10-29T20:17:14.295Z,19.21
2022-10-29T20:19:42.147Z,19.22
2022-10-29T20:22:10.024Z,19.21
2022-10-29T20:24:39.423Z,19.16
2022-10-29T20:27:07.509Z,19.06
2022-10-29T20:29:35.243Z,18.92
2022-10-29T20:32:03.271Z,18.76
2022-10-29T20:34:31.285Z,18.58
2022-10-29T20:39:33.530Z,18.40
2022-10-29T20:42:01.565Z,18.36
2022-10-29T20:44:29.564Z,18.36
2022-10-29T20:46:57.937Z,18.37
2022-10-29T20:49:26.149Z,18.37
2022-10-29T20:51:54.309Z,18.34
2022-10-29T20:54:22.176Z,18.38
2022-10-29T20:56:50.022Z,18.36
2022-10-29T20:59:17.891Z,18.34
2022-10-29T21:01:46.305Z,18.35
2022-10-29T21:04:15.273Z,18.42
2022-10-29T21:06:43.152Z,18.53
2022-10-29T21:09:11.332Z,18.62
2022-10-29T21:11:39.049Z,18.69
2022-10-29T21:14:07.298Z,18.72
2022-10-29T21:16:35.520Z,18.77
2022-10-29T21:19:04.111Z,18.79
2022-10-29T21:21:32.055Z,18.84
2022-10-29T21:24:00.196Z,18.90
2022-10-29T21:26:28.206Z,18.98
2022-10-29T21:28:56.673Z,19.05
2022-10-29T21:31:24.628Z,19.16
2022-10-29T21:33:52.524Z,19.21
2022-10-29T21:36:20.519Z,19.24
2022-10-29T21:38:48.981Z,19.24
2022-10-29T21:41:17.447Z,19.22
2022-10-29T21:43:45.205Z,19.21
2022-10-29T21:46:13.197Z,19.24
2022-10-29T21:48:41.211Z,19.21
2022-10-29T21:51:09.093Z,19.21
2022-10-29T21:53:37.884Z,19.19
2022-10-29T21:56:05.762Z,19.16
2022-10-29T21:58:33.657Z,19.15
2022-10-29T22:01:01.551Z,19.12
2022-10-29T22:03:29.459Z,19.11
2022-10-29T22:05:57.800Z,19.05
2022-10-29T22:08:25.781Z,19.04
2022-10-29T22:10:53.564Z,19.01
2022-10-29T22:13:21.398Z,18.96
2022-10-29T22:15:51.064Z,18.87
2022-10-29T22:18:19.355Z,18.88
2022-10-29T22:20:47.163Z,18.91
2022-10-29T22:25:47.646Z,18.93
2022-10-29T22:28:15.634Z,18.90
2022-10-29T22:30:43.779Z,18.80
2022-10-29T22:33:11.476Z,18.70
2022-10-29T22:35:39.269Z,18.63
2022-10-29T22:38:07.592Z,18.55
2022-10-29T22:40:35.590Z,18.48
2022-10-29T22:43:03.775Z,18.48
2022-10-29T22:45:31.516Z,18.56
2022-10-29T22:47:59.293Z,18.64
2022-10-29T22:50:27.035Z,18.67
2022-10-29T22:52:55.117Z,18.67
2022-10-29T22:55:23.104Z,18.64
2022-10-29T22:57:50.810Z,18.60
2022-10-29T23:00:18.437Z,18.58
2022-10-29T23:02:46.201Z,18.56
2022-10-29T23:05:14.324Z,18.52
2022-10-29T23:07:42.333Z,18.49
2022-10-29T23:10:09.975Z,18.45
2022-10-29T23:12:38.428Z,18.36
2022-10-29T23:15:06.146Z,18.24
2022-10-29T23:17:34.076Z,18.12
2022-10-29T23:20:02.104Z,18.05
2022-10-29T23:22:30.265Z,18.01
2022-10-29T23:24:57.886Z,18.03
2022-10-29T23:27:25.627Z,18.08
2022-10-29T23:29:53.485Z,18.15
2022-10-29T23:32:21.494Z,18.22
2022-10-29T23:34:50.119Z,18.20
2022-10-29T23:37:17.767Z,18.13
2022-10-29T23:39:45.378Z,18.07
2022-10-29T23:42:13.279Z,17.99
2022-10-29T23:44:41.590Z,17.90
2022-10-29T23:47:09.161Z,17.80
2022-10-29T23:49:36.800Z,17.73
2022-10-29T23:52:04.437Z,17.67
2022-10-29T23:54:32.206Z,17.60
2022-10-29T23:57:00.172Z,17.52
2022-10-29T23:59:27.779Z,17.46
